Bill's Weather Station Status


Memory

              total        used        free      shared  buff/cache   available
Mem:        3934336      392488      722584        2620     2819264     3286572
Swap:             0           0           0

Uptime

 10:08:30 up 54 days, 11:58,  1 user,  load average: 0.02, 0.06, 0.04


Temperature Database

meteo table size: 529885 rows

Last 50 temperature measurements:
2020-05-31 10:07:04: Inside: 71.8, Outside: 62.8, Pressure: 30.113, Humidity:  44, Illumination: 12.00
2020-05-31 10:02:03: Inside: 71.8, Outside: 62.8, Pressure: 30.105, Humidity:  44, Illumination: 12.00
2020-05-31 09:57:03: Inside: 71.9, Outside: 62.5, Pressure: 30.107, Humidity:  45, Illumination: 12.00
2020-05-31 09:52:03: Inside: 71.9, Outside: 62.8, Pressure: 30.106, Humidity:  45, Illumination: 12.00
2020-05-31 09:47:03: Inside: 71.9, Outside: 62.7, Pressure: 30.108, Humidity:  45, Illumination: 12.00
2020-05-31 09:42:03: Inside: 72.0, Outside: 62.8, Pressure: 30.107, Humidity:  45, Illumination: 12.00
2020-05-31 09:37:03: Inside: 71.9, Outside: 62.5, Pressure: 30.105, Humidity:  45, Illumination: 12.00
2020-05-31 09:32:03: Inside: 72.0, Outside: 61.9, Pressure: 30.105, Humidity:  45, Illumination: 12.00
2020-05-31 09:27:03: Inside: 72.2, Outside: 61.8, Pressure: 30.107, Humidity:  45, Illumination: 12.00
2020-05-31 09:22:03: Inside: 72.2, Outside: 62.3, Pressure: 30.109, Humidity:  46, Illumination: 12.00
2020-05-31 09:17:03: Inside: 72.2, Outside: 61.7, Pressure: 30.107, Humidity:  45, Illumination: 12.00
2020-05-31 09:12:03: Inside: 72.2, Outside: 62.0, Pressure: 30.107, Humidity:  46, Illumination: 12.00
2020-05-31 09:07:03: Inside: 72.2, Outside: 62.0, Pressure: 30.106, Humidity:  46, Illumination: 12.00
2020-05-31 09:02:03: Inside: 72.2, Outside: 61.8, Pressure: 30.107, Humidity:  46, Illumination: 12.00
2020-05-31 08:57:04: Inside: 72.2, Outside: 61.5, Pressure: 30.107, Humidity:  46, Illumination: 12.00
2020-05-31 08:52:04: Inside: 72.3, Outside: 61.7, Pressure: 30.107, Humidity:  46, Illumination: 12.00
2020-05-31 08:47:04: Inside: 72.3, Outside: 61.6, Pressure: 30.106, Humidity:  46, Illumination: 12.00
2020-05-31 08:42:03: Inside: 72.3, Outside: 61.4, Pressure: 30.107, Humidity:  45, Illumination: 12.00
2020-05-31 08:37:04: Inside: 72.4, Outside: 60.8, Pressure: 30.105, Humidity:  44, Illumination: 12.00
2020-05-31 08:32:04: Inside: 72.5, Outside: 61.2, Pressure: 30.100, Humidity:  45, Illumination: 12.00
2020-05-31 08:27:04: Inside: 72.5, Outside: 60.9, Pressure: 30.100, Humidity:  45, Illumination: 12.00
2020-05-31 08:22:04: Inside: 72.6, Outside: 61.0, Pressure: 30.099, Humidity:  45, Illumination: 12.00
2020-05-31 08:17:04: Inside: 72.6, Outside: 61.0, Pressure: 30.102, Humidity:  46, Illumination: 12.00
2020-05-31 08:12:04: Inside: 72.7, Outside: 61.5, Pressure: 30.098, Humidity:  46, Illumination: 12.00
2020-05-31 08:07:04: Inside: 72.8, Outside: 61.2, Pressure: 30.096, Humidity:  46, Illumination: 12.00
2020-05-31 08:02:04: Inside: 72.7, Outside: 61.9, Pressure: 30.096, Humidity:  47, Illumination: 12.00
2020-05-31 07:57:03: Inside: 73.0, Outside: 63.5, Pressure: 30.095, Humidity:  47, Illumination: 12.00
2020-05-31 07:52:03: Inside: 73.1, Outside: 65.2, Pressure: 30.092, Humidity:  47, Illumination: 13.00
2020-05-31 07:47:04: Inside: 73.1, Outside: 65.2, Pressure: 30.092, Humidity:  47, Illumination: 13.00
2020-05-31 07:42:03: Inside: 73.1, Outside: 65.4, Pressure: 30.088, Humidity:  47, Illumination: 14.00
2020-05-31 07:37:04: Inside: 73.2, Outside: 64.8, Pressure: 30.087, Humidity:  47, Illumination: 14.00
2020-05-31 07:32:04: Inside: 73.2, Outside: 64.6, Pressure: 30.086, Humidity:  47, Illumination: 15.00
2020-05-31 07:27:03: Inside: 73.2, Outside: 64.0, Pressure: 30.082, Humidity:  47, Illumination: 16.00
2020-05-31 07:22:03: Inside: 73.2, Outside: 63.7, Pressure: 30.079, Humidity:  48, Illumination: 17.00
2020-05-31 07:17:03: Inside: 73.3, Outside: 63.6, Pressure: 30.076, Humidity:  47, Illumination: 18.00
2020-05-31 07:12:03: Inside: 73.3, Outside: 63.0, Pressure: 30.074, Humidity:  48, Illumination: 19.00
2020-05-31 07:07:03: Inside: 73.3, Outside: 61.6, Pressure: 30.074, Humidity:  48, Illumination: 19.00
2020-05-31 07:02:03: Inside: 73.2, Outside: 60.0, Pressure: 30.074, Humidity:  49, Illumination: 17.00
2020-05-31 06:57:03: Inside: 73.2, Outside: 59.6, Pressure: 30.073, Humidity:  49, Illumination: 13.00
2020-05-31 06:52:03: Inside: 73.1, Outside: 59.2, Pressure: 30.072, Humidity:  49, Illumination: 11.00
2020-05-31 06:47:03: Inside: 73.1, Outside: 59.3, Pressure: 30.073, Humidity:  49, Illumination: 12.00
2020-05-31 06:42:03: Inside: 73.1, Outside: 59.6, Pressure: 30.067, Humidity:  49, Illumination: 10.00
2020-05-31 06:37:03: Inside: 73.1, Outside: 59.6, Pressure: 30.066, Humidity:  49, Illumination:  9.00
2020-05-31 06:32:03: Inside: 73.1, Outside: 59.3, Pressure: 30.066, Humidity:  48, Illumination: 10.00
2020-05-31 06:27:03: Inside: 73.1, Outside: 59.2, Pressure: 30.063, Humidity:  48, Illumination:  9.00
2020-05-31 06:22:03: Inside: 73.1, Outside: 59.0, Pressure: 30.061, Humidity:  49, Illumination:  8.00
2020-05-31 06:17:03: Inside: 73.1, Outside: 59.1, Pressure: 30.059, Humidity:  48, Illumination:  7.00
2020-05-31 06:12:03: Inside: 73.2, Outside: 58.9, Pressure: 30.055, Humidity:  49, Illumination:  7.00
2020-05-31 06:07:03: Inside: 73.2, Outside: 58.5, Pressure: 30.052, Humidity:  48, Illumination:  6.00
2020-05-31 06:02:03: Inside: 73.2, Outside: 58.3, Pressure: 30.050, Humidity:  48, Illumination:  5.00

Gas Readings Database

gas table size: 120678 rows

Last 50 gas reading changes:
2020-05-31 08:17:15: Reading: 417442
2020-05-31 08:15:00: Reading: 417438,   ΔT:   2 min,   ΔR:  4 cf
2020-05-31 08:14:00: Reading: 417436,   ΔT:   1 min,   ΔR:  2 cf
2020-05-31 08:12:59: Reading: 417434,   ΔT:   1 min,   ΔR:  2 cf
2020-05-31 05:38:45: Reading: 417432,   ΔT: 154 min,   ΔR:  2 cf
2020-05-31 04:07:15: Reading: 417430,   ΔT:  91 min,   ΔR:  2 cf
2020-05-31 03:35:30: Reading: 417428,   ΔT:  31 min,   ΔR:  2 cf
2020-05-31 03:05:45: Reading: 417426,   ΔT:  29 min,   ΔR:  2 cf
2020-05-31 02:45:30: Reading: 417424,   ΔT:  20 min,   ΔR:  2 cf
2020-05-31 02:44:30: Reading: 417422,   ΔT:   1 min,   ΔR:  2 cf
2020-05-31 02:43:45: Reading: 417420,   ΔT:   0 min,   ΔR:  2 cf
2020-05-31 02:40:45: Reading: 417416,   ΔT:   3 min,   ΔR:  4 cf
2020-05-31 02:39:45: Reading: 417412,   ΔT:   1 min,   ΔR:  4 cf
2020-05-31 02:36:30: Reading: 417408,   ΔT:   3 min,   ΔR:  4 cf
2020-05-31 02:14:46: Reading: 417406,   ΔT:  21 min,   ΔR:  2 cf
2020-05-31 02:00:00: Reading: 417404,   ΔT:  14 min,   ΔR:  2 cf
2020-05-31 01:54:46: Reading: 417402,   ΔT:   5 min,   ΔR:  2 cf
2020-05-31 01:54:30: Reading: 417400,   ΔT:   0 min,   ΔR:  2 cf
2020-05-31 01:53:45: Reading: 417398,   ΔT:   0 min,   ΔR:  2 cf
2020-05-31 01:45:31: Reading: 417394,   ΔT:   8 min,   ΔR:  4 cf
2020-05-31 01:20:30: Reading: 417392,   ΔT:  25 min,   ΔR:  2 cf
2020-05-31 01:18:00: Reading: 417390,   ΔT:   2 min,   ΔR:  2 cf
2020-05-31 01:16:15: Reading: 417388,   ΔT:   1 min,   ΔR:  2 cf
2020-05-31 01:10:00: Reading: 417386,   ΔT:   6 min,   ΔR:  2 cf
2020-05-31 01:08:30: Reading: 417384,   ΔT:   1 min,   ΔR:  2 cf
2020-05-31 00:51:16: Reading: 417382,   ΔT:  17 min,   ΔR:  2 cf
2020-05-31 00:48:15: Reading: 417380,   ΔT:   3 min,   ΔR:  2 cf
2020-05-31 00:47:15: Reading: 417378,   ΔT:   1 min,   ΔR:  2 cf
2020-05-31 00:38:46: Reading: 417376,   ΔT:   8 min,   ΔR:  2 cf
2020-05-31 00:31:15: Reading: 417374,   ΔT:   7 min,   ΔR:  2 cf
2020-05-31 00:22:16: Reading: 417374,   ΔT:   8 min,   ΔR:  0 cf
2020-05-31 00:18:01: Reading: 417372,   ΔT:   4 min,   ΔR:  2 cf
2020-05-31 00:13:46: Reading: 417370,   ΔT:   4 min,   ΔR:  2 cf
2020-05-31 00:06:00: Reading: 417368,   ΔT:   7 min,   ΔR:  2 cf
2020-05-31 00:03:00: Reading: 417366,   ΔT:   3 min,   ΔR:  2 cf
2020-05-31 00:02:01: Reading: 417364,   ΔT:   0 min,   ΔR:  2 cf
2020-05-31 00:01:15: Reading: 417362,   ΔT:   0 min,   ΔR:  2 cf
2020-05-30 23:11:16: Reading: 417358,   ΔT:  49 min,   ΔR:  4 cf
2020-05-30 22:23:01: Reading: 417356,   ΔT:  48 min,   ΔR:  2 cf
2020-05-30 22:22:00: Reading: 417354,   ΔT:   1 min,   ΔR:  2 cf
2020-05-30 22:21:16: Reading: 417352,   ΔT:   0 min,   ΔR:  2 cf
2020-05-30 22:11:01: Reading: 417348,   ΔT:  10 min,   ΔR:  4 cf
2020-05-30 21:58:16: Reading: 417346,   ΔT:  12 min,   ΔR:  2 cf
2020-05-30 21:44:45: Reading: 417344,   ΔT:  13 min,   ΔR:  2 cf
2020-05-30 21:33:00: Reading: 417342,   ΔT:  11 min,   ΔR:  2 cf
2020-05-30 21:31:16: Reading: 417340,   ΔT:   1 min,   ΔR:  2 cf
2020-05-30 21:28:15: Reading: 417338,   ΔT:   3 min,   ΔR:  2 cf
2020-05-30 21:14:45: Reading: 417336,   ΔT:  13 min,   ΔR:  2 cf
2020-05-30 21:12:30: Reading: 417332,   ΔT:   2 min,   ΔR:  4 cf
2020-05-30 21:11:00: Reading: 417330,   ΔT:   1 min,   ΔR:  2 cf